Time;durP1;ratioP1;P1;durP2;ratioP2;P2;SDS_P1;SDS_P2;PMS_P1;PMS_P2;Temp;Humidity;BMP_temperature;BMP_pressure;BME280_temperature;BME280_humidity;BME280_pressure;Samples;Min_cycle;Max_cycle;Signal;HPM_P1;HPM_P2
2021/03/06 00:00:06;;;;;;;11.15;2.97;;;19.40;50.30;;;;;;5097335;28;20034;-72
2021/03/06 00:02:33;;;;;;;11.32;2.90;;;19.40;50.50;;;;;;5101466;28;20024;-73
2021/03/06 00:04:59;;;;;;;7.65;2.10;;;19.40;50.40;;;;;;5100946;28;20122;-73
2021/03/06 00:07:25;;;;;;;9.57;2.20;;;19.40;50.50;;;;;;5094536;28;20024;-72
2021/03/06 00:09:52;;;;;;;9.43;3.15;;;19.40;50.60;;;;;;5099800;28;20099;-72
2021/03/06 00:12:18;;;;;;;21.77;3.92;;;19.30;50.70;;;;;;5102571;28;20107;-73
2021/03/06 00:14:45;;;;;;;9.75;2.38;;;19.40;51.10;;;;;;5099188;28;20012;-74
2021/03/06 00:17:11;;;;;;;9.60;2.20;;;19.40;51.00;;;;;;5101747;28;20153;-72
2021/03/06 00:19:38;;;;;;;9.32;3.17;;;19.40;51.20;;;;;;5102471;28;20039;-72
2021/03/06 00:22:04;;;;;;;12.68;2.70;;;19.40;51.70;;;;;;5088187;28;20339;-72
2021/03/06 00:24:31;;;;;;;10.13;2.45;;;19.30;51.20;;;;;;5101183;28;20024;-72
2021/03/06 00:26:58;;;;;;;11.10;2.75;;;19.30;51.10;;;;;;5101557;28;20023;-70
2021/03/06 00:29:24;;;;;;;10.20;3.10;;;19.30;51.30;;;;;;5095759;28;20445;-73
2021/03/06 00:31:51;;;;;;;6.65;2.20;;;19.30;51.40;;;;;;5101296;28;20034;-73
2021/03/06 00:34:17;;;;;;;9.60;3.60;;;19.40;51.50;;;;;;5093532;28;20035;-72
2021/03/06 00:36:44;;;;;;;7.22;3.10;;;19.40;51.40;;;;;;5099980;28;20030;-72
2021/03/06 00:39:10;;;;;;;11.18;2.28;;;19.40;51.50;;;;;;5098661;28;20353;-73
2021/03/06 00:41:37;;;;;;;9.63;2.25;;;19.30;51.70;;;;;;5098247;28;20050;-72
2021/03/06 00:44:03;;;;;;;11.88;4.28;;;19.20;51.90;;;;;;5081849;28;20046;-72
2021/03/06 00:46:30;;;;;;;16.05;3.00;;;19.20;51.80;;;;;;5101271;28;20048;-72
2021/03/06 00:48:56;;;;;;;11.55;2.25;;;19.10;51.80;;;;;;5102002;28;20024;-71
2021/03/06 00:51:23;;;;;;;11.25;2.25;;;19.10;51.60;;;;;;5103328;28;20020;-70
2021/03/06 00:53:50;;;;;;;12.00;3.35;;;19.10;51.70;;;;;;5104229;28;20016;-73
2021/03/06 00:56:16;;;;;;;11.13;2.53;;;19.00;51.90;;;;;;5100791;28;20015;-72
2021/03/06 00:58:43;;;;;;;10.45;2.55;;;19.00;52.30;;;;;;5103739;28;20073;-72
2021/03/06 01:01:12;;;;;;;20.17;5.32;;;18.80;52.00;;;;;;5098427;28;20024;-74
2021/03/06 01:03:39;;;;;;;11.48;3.63;;;18.80;53.10;;;;;;5101621;28;20525;-71
2021/03/06 01:06:06;;;;;;;12.80;2.90;;;18.70;52.80;;;;;;5093147;28;20034;-71
2021/03/06 01:08:34;;;;;;;11.00;2.50;;;18.70;52.70;;;;;;5099530;28;20873;-71
2021/03/06 01:11:01;;;;;;;9.55;3.30;;;18.60;52.60;;;;;;5094481;28;20032;-72
2021/03/06 01:13:28;;;;;;;10.43;3.20;;;18.60;53.00;;;;;;5100105;28;20043;-72
2021/03/06 01:15:55;;;;;;;12.52;3.10;;;18.50;52.90;;;;;;5093769;28;20473;-72
2021/03/06 01:18:21;;;;;;;13.02;3.25;;;18.50;52.70;;;;;;5088121;28;20120;-71
2021/03/06 01:20:48;;;;;;;9.43;2.55;;;18.60;52.90;;;;;;5105362;28;20480;-72
2021/03/06 01:23:15;;;;;;;11.07;2.95;;;18.70;52.90;;;;;;5096340;28;20028;-71
2021/03/06 01:25:41;;;;;;;14.50;4.28;;;18.60;52.60;;;;;;5097446;28;20020;-71
2021/03/06 01:28:08;;;;;;;18.75;3.47;;;18.50;53.60;;;;;;5102457;28;20035;-72
2021/03/06 01:30:35;;;;;;;18.65;3.63;;;18.40;53.30;;;;;;5102670;28;20552;-71
2021/03/06 01:33:02;;;;;;;18.20;3.28;;;18.20;54.40;;;;;;5097831;28;20016;-71
2021/03/06 01:35:29;;;;;;;15.23;3.83;;;18.30;54.00;;;;;;5098476;28;20032;-72
2021/03/06 01:37:55;;;;;;;9.65;3.22;;;18.40;54.50;;;;;;5100756;28;20469;-71
2021/03/06 01:40:36;;;;;;;15.00;3.78;;;18.40;54.20;;;;;;5100406;28;20035;-72
2021/03/06 01:43:13;;;;;;;13.18;3.83;;;18.30;54.30;;;;;;5105654;28;20450;-72
2021/03/06 01:45:40;;;;;;;16.98;3.97;;;18.10;54.00;;;;;;5101183;28;20032;-71
2021/03/06 01:48:07;;;;;;;20.15;5.03;;;18.20;54.60;;;;;;5090666;28;20335;-71
2021/03/06 01:50:36;;;;;;;19.35;4.65;;;18.20;55.00;;;;;;5096353;28;20016;-71
2021/03/06 01:53:06;;;;;;;14.73;3.95;;;18.20;54.70;;;;;;5091507;28;20454;-71
2021/03/06 01:55:35;;;;;;;11.80;4.57;;;18.00;55.20;;;;;;5089117;28;20029;-70
2021/03/06 01:58:03;;;;;;;15.23;4.90;;;18.10;55.50;;;;;;5094126;28;20056;-70
2021/03/06 02:00:30;;;;;;;15.57;4.90;;;17.90;55.40;;;;;;5101882;28;20385;-71
2021/03/06 02:02:57;;;;;;;13.85;3.90;;;17.90;56.30;;;;;;5092201;28;20365;-70
2021/03/06 02:05:24;;;;;;;16.58;4.57;;;17.90;56.40;;;;;;5086905;28;20031;-71
2021/03/06 02:07:51;;;;;;;14.30;4.15;;;17.80;56.30;;;;;;5091387;28;20475;-71
2021/03/06 02:10:25;;;;;;;11.70;3.60;;;17.80;56.00;;;;;;5095271;28;20033;-72
2021/03/06 02:13:12;;;;;;;9.18;3.03;;;17.70;55.90;;;;;;5094244;28;20032;-71
2021/03/06 02:16:10;;;;;;;8.30;2.20;;;17.60;56.30;;;;;;5102955;28;20028;-71
2021/03/06 02:18:55;;;;;;;8.15;3.33;;;17.60;56.10;;;;;;5096942;28;20043;-72
2021/03/06 02:21:28;;;;;;;9.52;3.63;;;17.60;56.40;;;;;;5103282;28;20422;-71
2021/03/06 02:23:57;;;;;;;;;;;17.60;56.90;;;;;;5102441;28;20023;-71
2021/03/06 02:27:05;;;;;;;8.38;3.47;;;17.60;56.70;;;;;;5103664;28;19934;-71
2021/03/06 02:30:13;;;;;;;11.32;2.63;;;17.50;56.80;;;;;;5102974;28;20107;-71
2021/03/06 02:32:44;;;;;;;5.65;2.10;;;17.40;57.00;;;;;;5084267;28;20059;-72
2021/03/06 02:35:15;;;;;;;9.47;2.53;;;17.40;57.60;;;;;;5101049;28;20099;-72
2021/03/06 02:37:58;;;;;;;5.93;1.92;;;17.30;57.90;;;;;;5104133;28;20368;-73
2021/03/06 02:40:26;;;;;;;10.20;2.90;;;17.30;58.10;;;;;;5101860;28;20031;-71
2021/03/06 02:42:52;;;;;;;7.15;2.30;;;17.30;58.10;;;;;;5101045;28;20024;-71
2021/03/06 02:45:20;;;;;;;4.55;2.40;;;17.30;58.30;;;;;;5104517;27;20031;-71
2021/03/06 02:47:47;;;;;;;15.18;2.85;;;17.30;58.10;;;;;;5097151;28;20039;-70
2021/03/06 02:50:14;;;;;;;11.02;2.67;;;17.30;58.00;;;;;;5079708;28;20072;-72
2021/03/06 02:52:41;;;;;;;9.48;3.50;;;17.30;58.10;;;;;;5087481;28;20103;-74
2021/03/06 02:55:10;;;;;;;5.05;2.28;;;17.30;58.50;;;;;;5089703;28;20462;-72
2021/03/06 02:57:55;;;;;;;10.32;2.83;;;17.20;58.40;;;;;;5095149;28;20400;-73
2021/03/06 03:00:42;;;;;;;6.05;2.53;;;17.20;58.30;;;;;;5100264;28;20027;-72
2021/03/06 03:03:22;;;;;;;7.85;2.53;;;17.20;58.30;;;;;;5099835;28;20032;-71
2021/03/06 03:06:14;;;;;;;12.88;3.30;;;17.20;59.10;;;;;;5105279;28;20028;-72
2021/03/06 03:09:00;;;;;;;9.47;3.23;;;17.20;59.20;;;;;;5104280;27;20024;-72
2021/03/06 03:11:46;;;;;;;8.73;2.30;;;17.20;59.30;;;;;;5103248;28;20449;-72
2021/03/06 03:14:17;;;;;;;8.75;2.80;;;17.20;59.50;;;;;;5097368;28;20035;-73
2021/03/06 03:16:59;;;;;;;16.02;3.75;;;17.20;59.20;;;;;;5097089;28;20324;-71
2021/03/06 03:19:48;;;;;;;9.63;2.60;;;17.30;59.20;;;;;;5090740;28;20086;-71
2021/03/06 03:22:20;;;;;;;9.30;2.88;;;17.30;59.20;;;;;;5100289;28;20035;-73
2021/03/06 03:24:50;;;;;;;9.38;2.40;;;17.40;59.20;;;;;;5095120;28;20076;-73
2021/03/06 03:27:17;;;;;;;13.25;3.25;;;17.40;59.00;;;;;;5081038;28;20092;-72
2021/03/06 03:29:45;;;;;;;9.10;2.83;;;17.40;59.10;;;;;;5097233;28;20021;-72
2021/03/06 03:32:12;;;;;;;14.27;2.33;;;17.40;58.50;;;;;;5094715;28;20089;-73
2021/03/06 03:34:40;;;;;;;9.60;2.85;;;17.40;58.60;;;;;;5096861;28;20074;-73
2021/03/06 03:37:10;;;;;;;9.52;2.80;;;17.40;58.40;;;;;;5099489;28;20445;-72
2021/03/06 03:39:38;;;;;;;8.80;2.30;;;17.40;58.50;;;;;;5096227;28;20080;-73
2021/03/06 03:42:06;;;;;;;9.90;2.70;;;17.30;58.20;;;;;;5092445;28;20450;-71
2021/03/06 03:44:35;;;;;;;13.88;2.97;;;17.40;58.30;;;;;;5091033;28;20433;-72
2021/03/06 03:47:03;;;;;;;7.40;2.70;;;17.40;58.40;;;;;;5092567;28;20115;-73
2021/03/06 03:49:30;;;;;;;13.55;3.20;;;17.40;58.70;;;;;;5084116;28;20074;-71
2021/03/06 03:51:57;;;;;;;13.25;3.20;;;17.40;59.00;;;;;;5098070;28;20035;-71
2021/03/06 03:54:23;;;;;;;12.65;3.10;;;17.30;58.60;;;;;;5097651;28;20020;-71
2021/03/06 03:56:50;;;;;;;11.38;3.88;;;17.30;59.00;;;;;;5092889;28;20020;-71
2021/03/06 03:59:16;;;;;;;10.70;3.38;;;17.30;58.70;;;;;;5096550;28;20445;-71
2021/03/06 04:01:45;;;;;;;7.93;2.53;;;17.20;59.00;;;;;;5092929;28;20058;-71
2021/03/06 04:04:32;;;;;;;10.52;2.63;;;17.30;59.30;;;;;;5098418;28;20028;-71
2021/03/06 04:07:01;;;;;;;9.80;3.30;;;17.10;58.60;;;;;;5103059;28;20132;-71
2021/03/06 04:09:27;;;;;;;10.70;3.28;;;16.90;59.10;;;;;;5102179;28;20033;-72
2021/03/06 04:11:54;;;;;;;8.52;3.50;;;17.20;59.80;;;;;;5100529;28;20076;-71
2021/03/06 04:14:20;;;;;;;10.35;3.63;;;17.30;59.30;;;;;;5096266;28;20020;-71
2021/03/06 04:16:47;;;;;;;9.68;4.55;;;17.30;59.10;;;;;;5103852;28;20076;-72
2021/03/06 04:19:14;;;;;;;13.73;4.53;;;17.10;59.10;;;;;;5097399;28;20069;-74
2021/03/06 04:21:40;;;;;;;14.70;4.38;;;17.00;59.60;;;;;;5105132;28;20043;-72
2021/03/06 04:24:11;;;;;;;14.20;4.57;;;17.10;59.60;;;;;;5103710;28;20016;-72
2021/03/06 04:26:37;;;;;;;9.25;2.78;;;17.40;59.30;;;;;;5106130;28;20020;-71
2021/03/06 04:29:04;;;;;;;17.55;3.05;;;17.50;58.80;;;;;;5098101;28;20103;-72
2021/03/06 04:31:30;;;;;;;10.15;2.88;;;17.40;58.70;;;;;;5102676;28;20028;-72
2021/03/06 04:33:56;;;;;;;13.50;3.03;;;17.40;59.00;;;;;;5109929;28;20445;-71
2021/03/06 04:36:23;;;;;;;18.15;3.30;;;17.40;59.40;;;;;;5107384;28;20114;-71
2021/03/06 04:38:49;;;;;;;7.30;3.03;;;17.60;58.90;;;;;;5106565;28;20027;-71
2021/03/06 04:41:16;;;;;;;12.50;3.25;;;17.60;58.80;;;;;;5104466;28;20031;-72
2021/03/06 04:43:42;;;;;;;9.95;3.78;;;17.80;59.60;;;;;;5100173;28;20016;-72
2021/03/06 04:46:08;;;;;;;18.10;6.85;;;17.80;59.70;;;;;;5101646;28;20370;-71
2021/03/06 04:48:36;;;;;;;13.75;3.17;;;17.70;59.30;;;;;;5107860;28;20023;-71
2021/03/06 04:51:03;;;;;;;18.17;12.10;;;17.70;60.20;;;;;;5108896;28;20025;-71
2021/03/06 04:53:29;;;;;;;10.00;7.10;;;17.50;60.10;;;;;;5109670;28;20028;-73
2021/03/06 04:55:55;;;;;;;11.63;3.47;;;17.40;60.60;;;;;;5100312;28;20028;-74
2021/03/06 04:58:22;;;;;;;13.10;4.50;;;17.30;60.60;;;;;;5102812;28;20331;-74
2021/03/06 05:00:48;;;;;;;8.63;3.83;;;17.10;60.80;;;;;;5105298;28;20507;-72
2021/03/06 05:03:15;;;;;;;9.32;3.97;;;17.20;60.70;;;;;;5102371;28;20114;-71
2021/03/06 05:05:41;;;;;;;11.07;4.43;;;17.20;60.10;;;;;;5102649;28;20023;-71
2021/03/06 05:08:07;;;;;;;8.55;4.43;;;17.10;60.80;;;;;;5087603;28;20025;-71
2021/03/06 05:10:34;;;;;;;5.32;2.47;;;17.40;60.10;;;;;;5098907;28;20031;-71
2021/03/06 05:13:00;;;;;;;8.52;3.80;;;17.40;60.40;;;;;;5102374;28;20073;-70
2021/03/06 05:15:28;;;;;;;12.73;4.72;;;17.40;60.40;;;;;;5105945;28;20050;-72
2021/03/06 05:17:54;;;;;;;8.25;2.88;;;17.40;59.90;;;;;;5103694;28;20028;-73
2021/03/06 05:20:21;;;;;;;14.65;5.25;;;17.30;60.00;;;;;;5106429;28;20299;-72
2021/03/06 05:22:47;;;;;;;7.30;2.22;;;17.20;60.30;;;;;;5104659;28;20024;-72
2021/03/06 05:25:13;;;;;;;11.25;6.65;;;17.30;60.10;;;;;;5106609;28;20024;-72
2021/03/06 05:27:40;;;;;;;12.63;4.47;;;17.10;60.90;;;;;;5104921;28;20444;-72
2021/03/06 05:30:07;;;;;;;10.05;3.17;;;17.00;61.20;;;;;;5094847;28;20456;-71
2021/03/06 05:32:34;;;;;;;6.25;2.17;;;16.90;61.00;;;;;;5095309;28;20499;-71
2021/03/06 05:35:00;;;;;;;12.25;6.93;;;16.70;61.50;;;;;;5100373;28;20034;-72
2021/03/06 05:37:26;;;;;;;10.40;3.58;;;16.80;61.10;;;;;;5098718;28;20065;-71
2021/03/06 05:39:53;;;;;;;10.40;5.32;;;16.90;61.50;;;;;;5099990;28;20037;-71
2021/03/06 05:42:19;;;;;;;8.98;3.00;;;16.90;61.60;;;;;;5089746;28;20478;-71
2021/03/06 05:44:46;;;;;;;4.47;2.10;;;17.00;61.20;;;;;;5088812;28;20039;-71
2021/03/06 05:47:13;;;;;;;5.53;1.85;;;17.20;60.80;;;;;;5094920;28;20019;-71
2021/03/06 05:49:40;;;;;;;10.07;1.60;;;17.20;60.00;;;;;;5093258;27;20015;-71
2021/03/06 05:52:08;;;;;;;5.53;1.55;;;17.20;60.60;;;;;;5100438;28;20028;-71
2021/03/06 05:54:37;;;;;;;9.80;2.30;;;17.40;59.90;;;;;;5101498;28;20086;-70
2021/03/06 05:57:05;;;;;;;8.45;2.20;;;17.50;61.10;;;;;;5102288;28;20035;-71
2021/03/06 05:59:33;;;;;;;11.48;3.00;;;17.50;61.50;;;;;;5097720;28;20550;-71
2021/03/06 06:02:00;;;;;;;10.60;3.17;;;17.50;61.10;;;;;;5099434;28;20451;-71
2021/03/06 06:04:28;;;;;;;11.98;3.08;;;17.60;61.50;;;;;;5103826;28;20019;-71
2021/03/06 06:06:57;;;;;;;8.90;2.88;;;17.60;61.20;;;;;;5100228;28;20028;-71
2021/03/06 06:09:24;;;;;;;7.72;2.28;;;17.50;61.00;;;;;;5102848;28;20050;-71
2021/03/06 06:11:50;;;;;;;6.10;2.22;;;17.50;61.10;;;;;;5102879;27;20369;-71
2021/03/06 06:14:17;;;;;;;5.50;2.10;;;17.50;61.40;;;;;;5102593;28;20528;-71
2021/03/06 06:16:43;;;;;;;7.70;2.20;;;17.50;61.40;;;;;;5104823;28;20038;-71
2021/03/06 06:19:10;;;;;;;5.80;1.85;;;17.40;61.80;;;;;;5098828;28;20028;-71
2021/03/06 06:21:48;;;;;;;7.97;2.85;;;17.30;62.00;;;;;;5101495;28;20111;-71
2021/03/06 06:24:24;;;;;;;15.50;3.47;;;17.30;62.30;;;;;;5102110;28;20361;-71
2021/03/06 06:27:03;;;;;;;10.98;3.97;;;17.20;65.00;;;;;;5100703;28;20024;-72
2021/03/06 06:29:37;;;;;;;11.63;2.63;;;17.10;66.10;;;;;;5098582;28;20020;-71
2021/03/06 06:32:05;;;;;;;6.43;2.30;;;16.80;66.90;;;;;;5101833;28;20035;-71
2021/03/06 06:34:31;;;;;;;11.00;3.05;;;16.80;67.10;;;;;;5101926;28;20082;-71
2021/03/06 06:36:58;;;;;;;6.78;2.85;;;16.80;66.90;;;;;;5100054;28;20111;-74
2021/03/06 06:39:31;;;;;;;11.05;2.38;;;16.80;67.20;;;;;;5097264;28;20046;-75
2021/03/06 06:42:00;;;;;;;5.15;1.33;;;16.60;68.60;;;;;;5097427;28;20775;-75
2021/03/06 06:44:29;;;;;;;4.35;1.40;;;16.20;64.60;;;;;;5095398;28;20060;-74
2021/03/06 06:46:56;;;;;;;6.50;1.27;;;15.70;57.70;;;;;;5101748;28;20101;-76
2021/03/06 06:49:24;;;;;;;10.85;1.80;;;14.70;60.70;;;;;;5103646;28;20026;-75
2021/03/06 06:52:02;;;;;;;11.02;1.75;;;14.00;60.80;;;;;;5098124;28;20021;-76
2021/03/06 06:54:30;;;;;;;5.47;1.77;;;13.40;61.80;;;;;;5101692;28;20107;-76
2021/03/06 06:57:10;;;;;;;5.78;1.63;;;13.00;63.90;;;;;;5099331;28;20073;-74
2021/03/06 06:59:38;;;;;;;4.00;1.48;;;12.70;65.20;;;;;;5100638;28;20479;-75
2021/03/06 07:02:09;;;;;;;2.65;1.45;;;12.30;66.60;;;;;;5100959;28;20067;-75
2021/03/06 07:04:59;;;;;;;10.63;1.80;;;12.30;67.00;;;;;;5104291;28;20027;-76
2021/03/06 07:07:35;;;;;;;5.47;1.80;;;11.90;69.10;;;;;;5105736;28;20403;-76
2021/03/06 07:10:07;;;;;;;5.25;2.15;;;11.70;69.00;;;;;;5097998;28;20019;-76
2021/03/06 07:12:39;;;;;;;8.27;2.05;;;11.70;70.40;;;;;;5099774;28;20038;-76
2021/03/06 07:15:20;;;;;;;3.40;1.30;;;11.60;69.50;;;;;;5101026;28;20028;-75
2021/03/06 07:17:49;;;;;;;6.40;1.83;;;11.40;70.50;;;;;;5101780;28;20058;-76
2021/03/06 07:20:39;;;;;;;2.63;2.15;;;11.50;70.90;;;;;;5104279;28;20027;-75
2021/03/06 07:23:18;;;;;;;8.82;3.28;;;11.50;70.00;;;;;;5099616;28;20054;-75
2021/03/06 07:25:45;;;;;;;5.72;1.60;;;11.50;71.60;;;;;;5104496;28;20038;-75
2021/03/06 07:28:11;;;;;;;4.15;1.50;;;11.30;71.70;;;;;;5099490;28;20035;-75
2021/03/06 07:30:38;;;;;;;4.47;1.67;;;11.30;72.70;;;;;;5096472;28;20114;-75
2021/03/06 07:33:07;;;;;;;2.92;1.60;;;11.20;70.80;;;;;;5099265;28;20029;-75
2021/03/06 07:35:36;;;;;;;4.38;1.50;;;11.40;72.20;;;;;;5103442;28;20023;-76
2021/03/06 07:38:07;;;;;;;5.40;1.30;;;11.40;71.70;;;;;;5098415;28;20461;-75
2021/03/06 07:40:37;;;;;;;3.03;1.80;;;11.40;70.70;;;;;;5101855;28;20103;-75
2021/03/06 07:43:17;;;;;;;8.20;1.60;;;11.40;71.80;;;;;;5091588;28;20028;-76
2021/03/06 07:45:47;;;;;;;2.88;1.40;;;11.40;71.40;;;;;;5102009;28;20031;-76
2021/03/06 07:48:16;;;;;;;3.55;1.83;;;11.30;71.20;;;;;;5101340;28;20019;-76
2021/03/06 07:50:44;;;;;;;4.03;1.75;;;11.10;72.60;;;;;;5100610;28;20024;-76
2021/03/06 07:53:13;;;;;;;4.43;1.95;;;11.00;73.20;;;;;;5104901;28;20406;-75
2021/03/06 07:55:40;;;;;;;6.30;1.58;;;11.00;72.70;;;;;;5097262;28;20023;-75
2021/03/06 07:58:17;;;;;;;4.53;1.50;;;11.00;72.40;;;;;;5105789;28;20038;-75
2021/03/06 08:00:49;;;;;;;6.47;2.15;;;10.90;73.40;;;;;;5102583;28;20024;-74
2021/03/06 08:03:29;;;;;;;3.80;1.45;;;11.00;71.80;;;;;;5101214;28;20136;-75
2021/03/06 08:06:17;;;;;;;4.78;1.42;;;11.00;72.30;;;;;;5101691;28;20110;-74
2021/03/06 08:08:46;;;;;;;2.78;1.67;;;11.10;71.30;;;;;;5100171;28;20033;-74
2021/03/06 08:11:18;;;;;;;3.97;1.50;;;11.20;72.10;;;;;;5104295;28;20088;-75
2021/03/06 08:13:48;;;;;;;4.70;1.73;;;11.10;72.90;;;;;;5103748;28;20032;-75
2021/03/06 08:16:23;;;;;;;4.28;1.58;;;11.10;71.90;;;;;;5101498;28;20032;-75
2021/03/06 08:18:57;;;;;;;8.68;2.42;;;11.10;72.60;;;;;;5099174;28;20050;-75
2021/03/06 08:21:40;;;;;;;5.15;1.92;;;11.10;71.60;;;;;;5105789;28;20087;-75
2021/03/06 08:24:15;;;;;;;4.60;1.70;;;11.30;70.60;;;;;;5106050;28;20533;-75
2021/03/06 08:27:00;;;;;;;3.08;1.50;;;11.20;71.80;;;;;;5104825;28;20064;-76
2021/03/06 08:29:26;;;;;;;4.00;1.40;;;11.20;71.80;;;;;;5107966;28;20016;-75
2021/03/06 08:32:03;;;;;;;2.85;1.50;;;11.20;72.20;;;;;;5104382;28;20390;-76
2021/03/06 08:34:48;;;;;;;2.63;1.55;;;11.30;71.30;;;;;;5105906;28;20024;-76
2021/03/06 08:37:14;;;;;;;5.55;2.38;;;11.40;70.60;;;;;;5105873;28;20110;-77
2021/03/06 08:39:45;;;;;;;4.53;1.77;;;11.40;70.10;;;;;;5104615;28;20115;-77
2021/03/06 08:42:18;;;;;;;6.50;1.48;;;11.50;70.30;;;;;;5106326;28;20035;-74
2021/03/06 08:44:46;;;;;;;4.10;1.50;;;11.50;70.40;;;;;;5106799;28;20028;-74
2021/03/06 08:47:20;;;;;;;4.20;1.65;;;11.60;69.60;;;;;;5101602;28;20069;-74
2021/03/06 08:49:47;;;;;;;2.53;1.58;;;11.60;69.30;;;;;;5104539;28;20031;-74
2021/03/06 08:52:14;;;;;;;4.80;1.80;;;11.60;69.60;;;;;;5102717;28;20060;-74
2021/03/06 08:54:41;;;;;;;5.25;1.60;;;11.60;70.70;;;;;;5102201;28;20360;-74
2021/03/06 08:57:33;;;;;;;3.70;1.58;;;11.40;73.40;;;;;;5103197;28;20024;-77
2021/03/06 09:00:08;;;;;;;5.10;1.65;;;11.40;73.30;;;;;;5102063;28;20457;-76
2021/03/06 09:02:35;;;;;;;6.65;2.40;;;11.40;73.70;;;;;;5105869;28;20040;-76
2021/03/06 09:05:10;;;;;;;4.13;1.67;;;11.50;71.50;;;;;;5103779;28;20024;-75
2021/03/06 09:07:46;;;;;;;6.93;2.25;;;11.60;70.60;;;;;;5099167;28;20107;-76
2021/03/06 09:10:18;;;;;;;3.45;1.70;;;11.70;69.40;;;;;;5103860;28;20073;-76
2021/03/06 09:12:46;;;;;;;6.65;2.00;;;11.70;71.00;;;;;;5102751;28;20031;-75
2021/03/06 09:15:23;;;;;;;5.30;1.50;;;11.70;69.40;;;;;;5103661;28;20453;-76
2021/03/06 09:17:50;;;;;;;6.32;1.58;;;11.70;69.80;;;;;;5104300;28;20062;-76
2021/03/06 09:20:17;;;;;;;8.65;2.00;;;11.80;69.50;;;;;;5098941;28;20038;-76
2021/03/06 09:22:46;;;;;;;6.00;1.80;;;11.80;68.30;;;;;;5104753;28;20491;-75
2021/03/06 09:25:13;;;;;;;8.45;2.15;;;11.90;69.10;;;;;;5102151;28;20047;-76
2021/03/06 09:27:45;;;;;;;11.55;2.17;;;12.10;69.70;;;;;;5104153;28;20394;-76
2021/03/06 09:30:42;;;;;;;13.05;2.60;;;12.10;69.40;;;;;;5102560;28;20047;-75
2021/03/06 09:33:29;;;;;;;6.63;1.98;;;12.00;69.60;;;;;;5083257;28;20037;-75
2021/03/06 09:36:09;;;;;;;4.95;1.63;;;12.00;69.20;;;;;;5106502;28;20614;-74
2021/03/06 09:38:54;;;;;;;8.55;1.95;;;11.80;69.80;;;;;;5102904;28;20023;-74
2021/03/06 09:41:24;;;;;;;5.35;1.80;;;11.70;70.70;;;;;;5103507;28;20406;-74
2021/03/06 09:43:58;;;;;;;8.18;2.05;;;11.70;70.00;;;;;;5102145;28;20107;-74
2021/03/06 09:46:27;;;;;;;11.27;1.80;;;11.60;69.10;;;;;;5105295;28;20030;-74
2021/03/06 09:48:56;;;;;;;6.50;2.05;;;11.60;69.10;;;;;;5102910;28;20028;-74
2021/03/06 09:51:25;;;;;;;8.07;2.33;;;11.70;68.90;;;;;;5102015;28;20092;-75
2021/03/06 09:54:00;;;;;;;6.32;2.10;;;11.60;68.90;;;;;;5107551;28;20020;-74
2021/03/06 09:56:27;;;;;;;7.10;2.13;;;11.60;68.80;;;;;;5106973;28;20020;-74
2021/03/06 09:59:06;;;;;;;6.45;3.20;;;11.60;68.00;;;;;;5101106;28;20024;-74
2021/03/06 10:01:33;;;;;;;10.10;2.28;;;11.70;69.10;;;;;;5098409;28;20495;-73
2021/03/06 10:04:11;;;;;;;9.82;2.85;;;11.60;68.70;;;;;;5103662;28;20030;-74
2021/03/06 10:06:41;;;;;;;4.65;1.90;;;11.60;68.10;;;;;;5102627;28;20032;-75
2021/03/06 10:09:11;;;;;;;7.70;2.20;;;11.60;69.10;;;;;;5101105;28;20044;-74
2021/03/06 10:11:40;;;;;;;9.73;2.65;;;11.60;69.10;;;;;;5102080;28;20366;-74
2021/03/06 10:14:08;;;;;;;6.15;1.92;;;11.60;68.70;;;;;;5102160;28;20127;-74
2021/03/06 10:16:44;;;;;;;5.07;1.70;;;11.60;69.00;;;;;;5101076;28;20456;-74
2021/03/06 10:19:10;;;;;;;11.68;2.20;;;11.60;70.00;;;;;;5105657;28;20024;-74
2021/03/06 10:21:37;;;;;;;6.25;2.28;;;11.60;68.40;;;;;;5102604;28;20027;-74
2021/03/06 10:24:06;;;;;;;6.90;2.00;;;11.60;69.10;;;;;;5099660;28;20043;-74
2021/03/06 10:26:33;;;;;;;6.45;1.80;;;11.80;68.50;;;;;;5106962;28;20023;-74
2021/03/06 10:29:21;;;;;;;14.20;3.00;;;11.70;69.50;;;;;;5103064;28;20024;-75
2021/03/06 10:31:56;;;;;;;7.03;1.77;;;11.70;68.20;;;;;;5099679;28;20448;-74
2021/03/06 10:34:31;;;;;;;8.35;1.92;;;11.90;68.00;;;;;;5104242;28;20020;-74
2021/03/06 10:37:18;;;;;;;8.02;3.08;;;11.70;69.10;;;;;;5102078;28;20035;-74
2021/03/06 10:40:06;;;;;;;5.22;2.33;;;11.80;69.90;;;;;;5100596;28;20015;-73
2021/03/06 10:42:44;;;;;;;7.38;2.00;;;11.70;68.80;;;;;;5102159;28;20031;-73
2021/03/06 10:45:24;;;;;;;7.00;2.30;;;11.60;69.80;;;;;;5101292;28;20030;-74
2021/03/06 10:47:53;;;;;;;12.20;2.45;;;11.70;69.60;;;;;;5102790;28;20031;-73
2021/03/06 10:50:30;;;;;;;4.28;2.30;;;11.70;69.20;;;;;;5101049;28;20024;-74
2021/03/06 10:53:18;;;;;;;9.32;2.30;;;11.90;69.30;;;;;;5098442;28;20016;-74
2021/03/06 10:55:46;;;;;;;6.70;2.00;;;11.80;68.60;;;;;;5100332;28;20106;-74
2021/03/06 10:58:13;;;;;;;2.58;2.17;;;11.80;69.50;;;;;;5102404;28;20035;-74
2021/03/06 11:00:42;;;;;;;7.97;2.38;;;11.70;69.90;;;;;;5099763;28;20105;-74
2021/03/06 11:03:10;;;;;;;5.78;2.55;;;11.60;69.50;;;;;;5100697;28;20028;-73
2021/03/06 11:05:38;;;;;;;4.78;2.05;;;11.40;70.00;;;;;;5100694;28;20024;-73
2021/03/06 11:08:12;;;;;;;5.28;2.00;;;11.30;71.00;;;;;;5100553;28;20046;-73
2021/03/06 11:10:41;;;;;;;4.75;1.73;;;11.30;70.10;;;;;;5100947;28;20055;-74
2021/03/06 11:13:07;;;;;;;3.00;1.70;;;11.30;71.30;;;;;;5100378;28;20024;-75
2021/03/06 11:15:34;;;;;;;2.95;1.63;;;11.10;72.50;;;;;;5095862;28;20024;-73
2021/03/06 11:18:03;;;;;;;3.90;1.90;;;11.10;72.20;;;;;;5098058;28;20032;-75
2021/03/06 11:20:33;;;;;;;2.88;1.50;;;11.10;71.20;;;;;;5081938;28;20058;-75
2021/03/06 11:23:03;;;;;;;1.42;1.23;;;11.10;72.00;;;;;;5101189;28;20043;-74
2021/03/06 11:25:30;;;;;;;2.22;1.45;;;11.10;72.00;;;;;;5100525;28;20028;-75
2021/03/06 11:28:02;;;;;;;3.08;1.80;;;10.90;73.30;;;;;;5101447;28;20056;-74
2021/03/06 11:30:32;;;;;;;1.88;1.42;;;10.90;72.30;;;;;;5096311;28;20521;-75
2021/03/06 11:33:00;;;;;;;3.17;2.10;;;11.00;71.80;;;;;;5096773;28;20028;-74
2021/03/06 11:35:27;;;;;;;3.15;1.75;;;11.00;70.90;;;;;;5099902;28;20044;-74
2021/03/06 11:37:54;;;;;;;6.65;1.67;;;10.90;72.10;;;;;;5098056;28;20061;-74
2021/03/06 11:40:24;;;;;;;1.65;1.50;;;10.90;71.50;;;;;;5099196;28;20036;-75
2021/03/06 11:42:50;;;;;;;3.17;1.50;;;10.80;73.20;;;;;;5100001;28;20472;-75
2021/03/06 11:45:18;;;;;;;2.33;1.30;;;10.70;73.00;;;;;;5099765;28;20028;-74
2021/03/06 11:47:46;;;;;;;4.65;1.70;;;10.80;72.20;;;;;;5098670;28;20024;-75
2021/03/06 11:50:14;;;;;;;2.53;1.40;;;10.80;72.40;;;;;;5099366;28;20038;-75
2021/03/06 11:52:40;;;;;;;1.42;1.33;;;10.80;72.20;;;;;;5099340;28;20055;-75
2021/03/06 11:55:08;;;;;;;4.32;1.40;;;10.90;72.40;;;;;;5100664;28;20032;-75
2021/03/06 11:57:35;;;;;;;2.85;1.33;;;10.90;71.60;;;;;;5101074;28;20115;-74
2021/03/06 12:00:05;;;;;;;3.13;1.20;;;11.00;72.10;;;;;;5103993;28;20024;-73
2021/03/06 12:02:32;;;;;;;2.83;1.30;;;10.90;72.60;;;;;;5100994;28;20024;-75
2021/03/06 12:04:58;;;;;;;3.38;1.23;;;11.00;71.70;;;;;;5104479;28;20032;-74
2021/03/06 12:07:25;;;;;;;3.83;1.20;;;11.10;71.00;;;;;;5106561;28;20040;-75
2021/03/06 12:09:51;;;;;;;1.42;1.35;;;11.10;70.50;;;;;;5121095;28;20022;-75
2021/03/06 12:12:17;;;;;;;4.43;1.50;;;11.10;69.30;;;;;;5115247;28;20010;-75
2021/03/06 12:14:44;;;;;;;4.70;1.70;;;11.30;69.10;;;;;;5115909;28;20023;-75
2021/03/06 12:17:10;;;;;;;4.00;1.55;;;11.40;69.10;;;;;;5116041;28;21029;-74
2021/03/06 12:19:37;;;;;;;1.80;1.70;;;11.30;69.00;;;;;;5112037;28;20059;-75
2021/03/06 12:22:03;;;;;;;1.83;1.52;;;11.00;71.00;;;;;;5114981;28;20079;-75
2021/03/06 12:24:30;;;;;;;2.05;1.63;;;11.30;69.30;;;;;;5117390;28;20024;-75
2021/03/06 12:26:56;;;;;;;4.95;1.80;;;11.20;69.30;;;;;;5118921;28;20024;-75
2021/03/06 12:29:23;;;;;;;5.18;1.65;;;11.30;68.60;;;;;;5121902;28;20020;-75
2021/03/06 12:31:49;;;;;;;4.43;1.65;;;11.20;68.80;;;;;;5119608;28;20360;-74
2021/03/06 12:34:16;;;;;;;4.57;1.63;;;11.30;69.30;;;;;;5116543;28;20024;-75
2021/03/06 12:36:44;;;;;;;2.25;1.00;;;11.20;69.50;;;;;;5123930;28;20017;-75
2021/03/06 12:39:10;;;;;;;2.83;1.42;;;11.00;70.90;;;;;;5121918;28;20091;-74
2021/03/06 12:41:38;;;;;;;2.70;1.27;;;11.10;70.40;;;;;;5114217;28;20022;-75
2021/03/06 12:44:05;;;;;;;4.57;2.38;;;11.10;70.20;;;;;;5119993;28;20023;-75
2021/03/06 12:46:32;;;;;;;2.47;1.50;;;11.10;70.00;;;;;;5122625;28;20115;-75
2021/03/06 12:48:59;;;;;;;6.00;1.77;;;11.10;69.10;;;;;;5122212;28;20238;-75
2021/03/06 12:51:25;;;;;;;1.70;1.33;;;11.20;69.00;;;;;;5121693;28;20028;-75
2021/03/06 12:53:52;;;;;;;1.58;1.33;;;11.20;69.00;;;;;;5119253;28;20051;-75
2021/03/06 12:56:21;;;;;;;2.53;1.58;;;11.10;69.50;;;;;;5120050;28;20020;-75
2021/03/06 12:58:47;;;;;;;2.15;1.70;;;11.10;69.60;;;;;;5118366;28;20020;-75